Siempre Rufo — EA6245 — position and weather

sailwx.info

Track history (hours):
 
Tides and Currents Weather Stations Pressure Air Temp Water Temp Dewpoint Dewpoint Depression Visibility Wind Speed Wind Dir Waves Ship Positions

Siempre Rufo

Last reported at 2017-Oct-11 00:00 UTC. Time now 2017-Oct-18 16:59 UTC.
Position N 43°42' W 003°27'.

Length 18 m.

Type: Fishing. MMSI: 224011530.

Date/timePositionNaut miles runAvg speedWind from/ knotsBaromVisibWave heightAir tempDewpointWater temp
2017-Oct-11 00:00N 43°42' W 003°27'4 7.5
2017-Oct-10 23:30N 43°46' W 003°27'4 7.6
2017-Oct-10 23:00N 43°50' W 003°27'4 7.9
2017-Oct-10 22:31N 43°54' W 003°27'4 7.9
2017-Oct-10 22:00N 43°58' W 003°27'4 7.9
2017-Oct-10 21:30N 44°02' W 003°28'5 7.8
2017-Oct-10 20:53N 44°06' W 003°29'5 7.9
2017-Oct-10 20:16N 44°11' W 003°29'2 8.0
2017-Oct-10 20:00N 44°13' W 003°30'7 8.3
2017-Oct-10 19:12N 44°20' W 003°30'2 8.3
2017-Oct-10 19:00N 44°22' W 003°31'  
2017-Oct-05 16:32N 45°43' W 003°46'7 6.6
2017-Oct-05 15:29N 45°42' W 003°36'2 4.1
2017-Oct-05 15:00N 45°40' W 003°36'4 7.1
2017-Oct-05 14:29N 45°36' W 003°37'36 7.1
2017-Oct-05 09:26N 45°00' W 003°41'22 7.2
2017-Oct-05 06:21N 44°39' W 003°50'3 7.7
2017-Oct-05 06:00N 44°36' W 003°50'14 7.4
2017-Oct-05 04:07N 44°22' W 003°52'1 7.4
2017-Oct-05 03:56N 44°21' W 003°52'  
2017-Oct-02 01:37N 45°53' W 003°58'1 0.8
2017-Oct-02 00:37N 45°53' W 003°59'0 0.8
2017-Oct-02 00:22N 45°53' W 003°59'3 0.7
2017-Oct-01 19:44N 45°53' W 004°03'  
Track history (hours):
 
Tides and Currents Weather Stations Pressure Air Temp Water Temp Dewpoint Dewpoint Depression Visibility Wind Speed Wind Dir Waves Ship Positions

Siempre Rufo

Last reported at 2017-Oct-11 00:00 UTC. Time now 2017-Oct-18 16:59 UTC.
Position N 43°42' W 003°27'.

Length 18 m.

Type: Fishing. MMSI: 224011530.

Date/timePositionNaut miles runAvg speedWind from/ knotsBaromVisibWave heightAir tempDewpointWater temp
2017-Oct-11 00:00N 43°42' W 003°27'4 7.5
2017-Oct-10 23:30N 43°46' W 003°27'4 7.6
2017-Oct-10 23:00N 43°50' W 003°27'4 7.9
2017-Oct-10 22:31N 43°54' W 003°27'4 7.9
2017-Oct-10 22:00N 43°58' W 003°27'4 7.9
2017-Oct-10 21:30N 44°02' W 003°28'5 7.8
2017-Oct-10 20:53N 44°06' W 003°29'5 7.9
2017-Oct-10 20:16N 44°11' W 003°29'2 8.0
2017-Oct-10 20:00N 44°13' W 003°30'7 8.3
2017-Oct-10 19:12N 44°20' W 003°30'2 8.3
2017-Oct-10 19:00N 44°22' W 003°31'  
2017-Oct-05 16:32N 45°43' W 003°46'7 6.6
2017-Oct-05 15:29N 45°42' W 003°36'2 4.1
2017-Oct-05 15:00N 45°40' W 003°36'4 7.1
2017-Oct-05 14:29N 45°36' W 003°37'36 7.1
2017-Oct-05 09:26N 45°00' W 003°41'22 7.2
2017-Oct-05 06:21N 44°39' W 003°50'3 7.7
2017-Oct-05 06:00N 44°36' W 003°50'14 7.4
2017-Oct-05 04:07N 44°22' W 003°52'1 7.4
2017-Oct-05 03:56N 44°21' W 003°52'  
2017-Oct-02 01:37N 45°53' W 003°58'1 0.8
2017-Oct-02 00:37N 45°53' W 003°59'0 0.8
2017-Oct-02 00:22N 45°53' W 003°59'3 0.7
2017-Oct-01 19:44N 45°53' W 004°03'  

Dump ship's entire track history